createdAt,value
2018-06-02T00:00:10.853Z,122.70
2018-06-02T00:01:08.774Z,123.50
2018-06-02T00:02:08.761Z,122.70
2018-06-02T00:03:08.766Z,120.70
2018-06-02T00:04:08.827Z,121.70
2018-06-02T00:05:08.805Z,122.30
2018-06-02T00:06:08.891Z,126.20
2018-06-02T00:07:08.769Z,122.60
2018-06-02T00:08:10.869Z,121.00
2018-06-02T00:09:08.828Z,131.70
2018-06-02T00:10:08.922Z,123.40
2018-06-02T00:11:08.875Z,120.80
2018-06-02T00:12:15.935Z,118.60
2018-06-02T00:14:40.902Z,122.00
2018-06-02T00:15:41.948Z,113.20
2018-06-02T00:18:23.977Z,109.10
2018-06-02T00:19:23.850Z,106.90
2018-06-02T00:20:23.968Z,104.70
2018-06-02T00:21:23.889Z,108.40
2018-06-02T00:22:24.981Z,112.60
2018-06-02T00:23:23.951Z,110.30
2018-06-02T00:24:29.016Z,106.90
2018-06-02T00:25:23.941Z,107.20
2018-06-02T00:26:23.967Z,100.50
2018-06-02T00:28:27.134Z,110.80
2018-06-02T00:29:26.082Z,109.60
2018-06-02T00:30:26.096Z,105.40
2018-06-02T00:31:26.222Z,113.60
2018-06-02T00:32:26.106Z,106.00
2018-06-02T00:33:26.102Z,110.40
2018-06-02T00:34:26.100Z,111.20
2018-06-02T00:35:27.113Z,117.40
2018-06-02T00:36:26.108Z,112.50
2018-06-02T00:37:26.060Z,108.80
2018-06-02T00:38:26.130Z,112.80
2018-06-02T00:39:26.120Z,109.20
2018-06-02T00:40:26.148Z,116.90
2018-06-02T00:43:49.167Z,115.40
2018-06-02T00:44:42.439Z,120.30
2018-06-02T00:46:57.990Z,114.80
2018-06-02T00:47:58.071Z,128.50
2018-06-02T00:48:57.949Z,121.70
2018-06-02T00:50:02.656Z,124.30
2018-06-02T00:50:58.016Z,135.40
2018-06-02T00:51:58.053Z,127.40
2018-06-02T00:52:58.017Z,135.10
2018-06-02T00:55:33.007Z,146.00
2018-06-02T00:56:31.893Z,134.00
2018-06-02T00:57:31.875Z,129.50
2018-06-02T00:58:31.906Z,133.50
2018-06-02T00:59:32.941Z,136.40
2018-06-02T01:00:31.916Z,131.30
2018-06-02T01:01:32.960Z,133.50
2018-06-02T01:02:31.868Z,138.30
2018-06-02T01:04:51.063Z,145.70
2018-06-02T01:05:56.717Z,142.20
2018-06-02T01:06:51.040Z,141.80
2018-06-02T01:07:51.113Z,140.40
2018-06-02T01:08:51.097Z,137.40
2018-06-02T01:09:51.088Z,143.20
2018-06-02T01:10:51.111Z,144.90
2018-06-02T01:11:51.121Z,151.80
2018-06-02T01:14:56.537Z,141.30
2018-06-02T01:15:56.483Z,151.40
2018-06-02T01:16:56.454Z,147.80
2018-06-02T01:17:56.479Z,144.40
2018-06-02T01:18:56.480Z,148.00
2018-06-02T01:19:56.578Z,147.20
2018-06-02T01:20:56.572Z,148.00
2018-06-02T01:21:56.508Z,145.30
2018-06-02T01:22:56.495Z,148.50
2018-06-02T01:23:57.549Z,152.00
2018-06-02T01:24:56.569Z,142.80
2018-06-02T01:25:57.730Z,148.70
2018-06-02T01:27:43.527Z,153.80
2018-06-02T01:28:43.438Z,154.60
2018-06-02T01:29:43.438Z,146.40
2018-06-02T01:30:43.477Z,150.20
2018-06-02T01:31:45.592Z,149.30
2018-06-02T01:32:43.448Z,148.90
2018-06-02T01:33:43.514Z,152.50
2018-06-02T01:34:43.520Z,152.20
2018-06-02T01:37:05.535Z,159.20
2018-06-02T01:38:04.856Z,160.60
2018-06-02T01:39:04.201Z,168.50
2018-06-02T01:40:03.970Z,165.70
2018-06-02T01:41:51.301Z,166.00
2018-06-02T01:42:51.304Z,167.80
2018-06-02T01:43:51.335Z,167.30
2018-06-02T01:44:51.334Z,177.30
2018-06-02T01:45:51.399Z,171.90
2018-06-02T01:46:51.415Z,177.70
2018-06-02T01:47:51.443Z,171.80
2018-06-02T01:48:51.364Z,165.50
2018-06-02T01:49:51.366Z,165.70
2018-06-02T01:50:51.499Z,172.30
2018-06-02T01:51:51.433Z,159.50
2018-06-02T01:52:51.587Z,166.70
2018-06-02T01:53:51.421Z,156.10
2018-06-02T01:54:51.449Z,160.60
2018-06-02T01:55:51.564Z,157.60
2018-06-02T01:57:41.364Z,154.00
2018-06-02T01:58:41.190Z,146.90
2018-06-02T01:59:41.195Z,150.00
2018-06-02T02:00:41.277Z,139.30
2018-06-02T02:01:41.206Z,137.60
2018-06-02T02:02:41.214Z,138.50
2018-06-02T02:03:41.244Z,137.30
2018-06-02T02:04:41.251Z,126.80
2018-06-02T02:05:41.317Z,125.90
2018-06-02T02:06:41.324Z,121.60
2018-06-02T02:07:41.362Z,121.20
2018-06-02T02:08:41.291Z,118.70
2018-06-02T02:09:56.196Z,113.40
2018-06-02T02:10:41.297Z,111.50
2018-06-02T02:11:41.400Z,114.10
2018-06-02T02:12:41.386Z,108.40
2018-06-02T02:13:41.357Z,109.30
2018-06-02T02:14:41.348Z,100.30
2018-06-02T02:16:31.463Z,103.90
